Oak Forest, Texas
Current Conditions -  °F | °C
As of 10:55 AM on Wednesday 22 Oct 2014 (Local Time) from KT20 Reporting Station
Clear Clear  
Wind Chill: 77°   Ceiling: Unl
Heat Index: 79°   Visibility: 10mi
Dew Point: 63°   Wind: 9mph
Humidity: 61%   Direction: 80°E
Pressure: 30.12"   Gusts: NA
Location:  29.481°N, 97.4305°W
Report Text: KT20 221555Z AUTO 08008KT 10SM CLR 25/17 A3012 RMK AO2 T02500171
Loading
Personal Weather Stations






























Interactive Weather Map
Tropical Storm Tracking
New forecast layout! Learn more

10-Day Weather Forecast

Advertisements
Track Severe Weather on mobile